sensor_id;sensor_type;location;lat;lon;timestamp;P1;durP1;ratioP1;P2;durP2;ratioP2
70487;SDS011;57976;48.174;16.370;2022-09-27T00:00:58;6.90;;;3.10;;
70487;SDS011;57976;48.174;16.370;2022-09-27T00:03:04;6.10;;;3.00;;
70487;SDS011;57976;48.174;16.370;2022-09-27T00:05:09;6.60;;;3.40;;
70487;SDS011;57976;48.174;16.370;2022-09-27T00:07:13;6.60;;;3.30;;
70487;SDS011;57976;48.174;16.370;2022-09-27T00:09:18;6.90;;;3.40;;
70487;SDS011;57976;48.174;16.370;2022-09-27T00:11:26;8.70;;;3.30;;
70487;SDS011;57976;48.174;16.370;2022-09-27T00:13:32;7.10;;;3.20;;
70487;SDS011;57976;48.174;16.370;2022-09-27T00:15:37;6.80;;;3.20;;
70487;SDS011;57976;48.174;16.370;2022-09-27T00:17:42;7.20;;;2.90;;
70487;SDS011;57976;48.174;16.370;2022-09-27T00:19:47;6.30;;;3.10;;
70487;SDS011;57976;48.174;16.370;2022-09-27T00:21:51;7.30;;;3.20;;
70487;SDS011;57976;48.174;16.370;2022-09-27T00:23:58;6.60;;;3.10;;
70487;SDS011;57976;48.174;16.370;2022-09-27T00:26:03;7.00;;;3.10;;
70487;SDS011;57976;48.174;16.370;2022-09-27T00:28:09;7.00;;;3.40;;
70487;SDS011;57976;48.174;16.370;2022-09-27T00:30:14;8.70;;;3.50;;
70487;SDS011;57976;48.174;16.370;2022-09-27T00:32:18;6.70;;;3.30;;
70487;SDS011;57976;48.174;16.370;2022-09-27T00:34:24;7.20;;;3.40;;
70487;SDS011;57976;48.174;16.370;2022-09-27T00:36:29;6.70;;;3.10;;
70487;SDS011;57976;48.174;16.370;2022-09-27T00:38:35;7.70;;;3.40;;
70487;SDS011;57976;48.174;16.370;2022-09-27T00:40:40;6.80;;;3.50;;
70487;SDS011;57976;48.174;16.370;2022-09-27T00:42:45;6.30;;;3.10;;
70487;SDS011;57976;48.174;16.370;2022-09-27T00:45:01;6.60;;;3.20;;
70487;SDS011;57976;48.174;16.370;2022-09-27T00:47:09;6.70;;;3.50;;
70487;SDS011;57976;48.174;16.370;2022-09-27T00:49:22;6.60;;;3.30;;
70487;SDS011;57976;48.174;16.370;2022-09-27T00:51:31;6.70;;;3.10;;
70487;SDS011;57976;48.174;16.370;2022-09-27T00:53:42;8.10;;;3.20;;
70487;SDS011;57976;48.174;16.370;2022-09-27T00:55:53;6.40;;;3.00;;
70487;SDS011;57976;48.174;16.370;2022-09-27T00:58:01;7.10;;;3.10;;
70487;SDS011;57976;48.174;16.370;2022-09-27T01:00:08;6.60;;;3.00;;
70487;SDS011;57976;48.174;16.370;2022-09-27T01:02:14;6.80;;;3.20;;
70487;SDS011;57976;48.174;16.370;2022-09-27T01:04:20;6.50;;;3.20;;
70487;SDS011;57976;48.174;16.370;2022-09-27T01:06:28;6.50;;;3.10;;
70487;SDS011;57976;48.174;16.370;2022-09-27T01:08:33;7.20;;;3.10;;
70487;SDS011;57976;48.174;16.370;2022-09-27T01:10:39;6.40;;;3.00;;
70487;SDS011;57976;48.174;16.370;2022-09-27T01:13:02;5.70;;;2.60;;
70487;SDS011;57976;48.174;16.370;2022-09-27T01:15:16;7.20;;;3.00;;
70487;SDS011;57976;48.174;16.370;2022-09-27T01:17:31;7.00;;;2.90;;
70487;SDS011;57976;48.174;16.370;2022-09-27T01:20:04;6.60;;;2.80;;
70487;SDS011;57976;48.174;16.370;2022-09-27T01:22:25;6.90;;;2.90;;
70487;SDS011;57976;48.174;16.370;2022-09-27T01:24:46;5.80;;;2.70;;
70487;SDS011;57976;48.174;16.370;2022-09-27T01:29:48;6.60;;;3.10;;
70487;SDS011;57976;48.174;16.370;2022-09-27T01:32:06;6.60;;;2.90;;
70487;SDS011;57976;48.174;16.370;2022-09-27T01:34:21;6.90;;;2.80;;
70487;SDS011;57976;48.174;16.370;2022-09-27T01:36:31;6.60;;;3.10;;
70487;SDS011;57976;48.174;16.370;2022-09-27T01:38:46;6.40;;;2.80;;
70487;SDS011;57976;48.174;16.370;2022-09-27T01:41:10;6.20;;;2.80;;
70487;SDS011;57976;48.174;16.370;2022-09-27T01:43:29;6.40;;;2.90;;
70487;SDS011;57976;48.174;16.370;2022-09-27T01:45:40;7.90;;;2.90;;
70487;SDS011;57976;48.174;16.370;2022-09-27T01:48:00;7.40;;;2.70;;
70487;SDS011;57976;48.174;16.370;2022-09-27T01:50:36;6.20;;;2.60;;
70487;SDS011;57976;48.174;16.370;2022-09-27T01:52:45;7.00;;;2.60;;
70487;SDS011;57976;48.174;16.370;2022-09-27T01:54:56;6.00;;;2.90;;
70487;SDS011;57976;48.174;16.370;2022-09-27T01:57:29;6.40;;;3.00;;
70487;SDS011;57976;48.174;16.370;2022-09-27T01:59:41;6.40;;;2.80;;
70487;SDS011;57976;48.174;16.370;2022-09-27T02:02:07;6.10;;;2.80;;
70487;SDS011;57976;48.174;16.370;2022-09-27T02:04:36;6.50;;;2.80;;
70487;SDS011;57976;48.174;16.370;2022-09-27T02:06:52;6.40;;;2.70;;
70487;SDS011;57976;48.174;16.370;2022-09-27T02:09:04;6.30;;;2.70;;
70487;SDS011;57976;48.174;16.370;2022-09-27T02:11:37;6.10;;;2.60;;
70487;SDS011;57976;48.174;16.370;2022-09-27T02:13:48;6.50;;;2.80;;
70487;SDS011;57976;48.174;16.370;2022-09-27T02:16:12;6.20;;;2.60;;
70487;SDS011;57976;48.174;16.370;2022-09-27T02:18:31;6.20;;;2.70;;
70487;SDS011;57976;48.174;16.370;2022-09-27T02:20:44;6.20;;;2.60;;
70487;SDS011;57976;48.174;16.370;2022-09-27T02:22:54;6.30;;;2.60;;
70487;SDS011;57976;48.174;16.370;2022-09-27T02:25:09;7.00;;;2.80;;
70487;SDS011;57976;48.174;16.370;2022-09-27T02:27:19;5.90;;;2.70;;
70487;SDS011;57976;48.174;16.370;2022-09-27T02:29:30;6.30;;;2.80;;
70487;SDS011;57976;48.174;16.370;2022-09-27T02:31:38;5.70;;;2.70;;
70487;SDS011;57976;48.174;16.370;2022-09-27T02:33:45;6.40;;;2.80;;
70487;SDS011;57976;48.174;16.370;2022-09-27T02:35:52;6.20;;;2.90;;
70487;SDS011;57976;48.174;16.370;2022-09-27T02:37:57;8.40;;;3.50;;
70487;SDS011;57976;48.174;16.370;2022-09-27T02:40:03;8.00;;;3.40;;
70487;SDS011;57976;48.174;16.370;2022-09-27T02:42:08;8.20;;;3.40;;
70487;SDS011;57976;48.174;16.370;2022-09-27T02:44:14;7.10;;;3.40;;
70487;SDS011;57976;48.174;16.370;2022-09-27T02:46:25;7.50;;;3.30;;
70487;SDS011;57976;48.174;16.370;2022-09-27T02:48:43;7.40;;;3.30;;
70487;SDS011;57976;48.174;16.370;2022-09-27T02:53:37;6.80;;;3.30;;
70487;SDS011;57976;48.174;16.370;2022-09-27T02:56:13;7.00;;;3.10;;
70487;SDS011;57976;48.174;16.370;2022-09-27T02:58:47;6.80;;;3.00;;
70487;SDS011;57976;48.174;16.370;2022-09-27T03:01:14;7.00;;;3.40;;
70487;SDS011;57976;48.174;16.370;2022-09-27T03:03:38;10.00;;;3.40;;
70487;SDS011;57976;48.174;16.370;2022-09-27T03:05:50;7.50;;;3.70;;
70487;SDS011;57976;48.174;16.370;2022-09-27T03:07:56;7.60;;;3.50;;
70487;SDS011;57976;48.174;16.370;2022-09-27T03:10:01;7.10;;;3.50;;
70487;SDS011;57976;48.174;16.370;2022-09-27T03:12:06;7.20;;;3.40;;
70487;SDS011;57976;48.174;16.370;2022-09-27T03:14:11;7.40;;;3.70;;
70487;SDS011;57976;48.174;16.370;2022-09-27T03:16:24;7.20;;;3.80;;
70487;SDS011;57976;48.174;16.370;2022-09-27T03:18:43;7.00;;;3.60;;
70487;SDS011;57976;48.174;16.370;2022-09-27T03:21:06;6.80;;;3.50;;
70487;SDS011;57976;48.174;16.370;2022-09-27T03:23:11;7.20;;;3.40;;
70487;SDS011;57976;48.174;16.370;2022-09-27T03:25:16;8.00;;;3.70;;
70487;SDS011;57976;48.174;16.370;2022-09-27T03:27:21;7.40;;;3.40;;
70487;SDS011;57976;48.174;16.370;2022-09-27T03:29:26;7.30;;;3.80;;
70487;SDS011;57976;48.174;16.370;2022-09-27T03:31:36;7.20;;;3.90;;
70487;SDS011;57976;48.174;16.370;2022-09-27T03:34:16;8.00;;;3.90;;
70487;SDS011;57976;48.174;16.370;2022-09-27T03:36:21;7.60;;;3.70;;
70487;SDS011;57976;48.174;16.370;2022-09-27T03:38:26;8.20;;;3.60;;
70487;SDS011;57976;48.174;16.370;2022-09-27T03:40:33;7.80;;;3.70;;
70487;SDS011;57976;48.174;16.370;2022-09-27T03:42:39;8.50;;;4.00;;
70487;SDS011;57976;48.174;16.370;2022-09-27T03:44:50;7.70;;;4.00;;
70487;SDS011;57976;48.174;16.370;2022-09-27T03:46:55;7.40;;;3.90;;
70487;SDS011;57976;48.174;16.370;2022-09-27T03:49:00;8.20;;;3.70;;
70487;SDS011;57976;48.174;16.370;2022-09-27T03:51:05;7.70;;;3.90;;
70487;SDS011;57976;48.174;16.370;2022-09-27T03:53:09;7.90;;;4.10;;
70487;SDS011;57976;48.174;16.370;2022-09-27T03:55:14;8.50;;;4.30;;
70487;SDS011;57976;48.174;16.370;2022-09-27T03:57:19;8.50;;;3.80;;
70487;SDS011;57976;48.174;16.370;2022-09-27T03:59:24;8.00;;;3.80;;
70487;SDS011;57976;48.174;16.370;2022-09-27T04:01:58;7.50;;;3.80;;
70487;SDS011;57976;48.174;16.370;2022-09-27T04:04:22;7.90;;;4.10;;
70487;SDS011;57976;48.174;16.370;2022-09-27T04:06:28;8.30;;;4.10;;
70487;SDS011;57976;48.174;16.370;2022-09-27T04:08:32;8.90;;;4.10;;
70487;SDS011;57976;48.174;16.370;2022-09-27T04:10:37;8.80;;;4.10;;
70487;SDS011;57976;48.174;16.370;2022-09-27T04:12:43;7.80;;;4.10;;
70487;SDS011;57976;48.174;16.370;2022-09-27T04:14:48;7.80;;;3.80;;
70487;SDS011;57976;48.174;16.370;2022-09-27T04:17:12;9.00;;;3.90;;
70487;SDS011;57976;48.174;16.370;2022-09-27T04:19:46;8.10;;;3.90;;
70487;SDS011;57976;48.174;16.370;2022-09-27T04:21:51;8.20;;;4.20;;
70487;SDS011;57976;48.174;16.370;2022-09-27T04:23:55;9.00;;;4.50;;
70487;SDS011;57976;48.174;16.370;2022-09-27T04:26:01;8.30;;;4.00;;
70487;SDS011;57976;48.174;16.370;2022-09-27T04:28:26;9.10;;;4.30;;
70487;SDS011;57976;48.174;16.370;2022-09-27T04:30:30;8.90;;;4.20;;
70487;SDS011;57976;48.174;16.370;2022-09-27T04:32:47;8.40;;;4.40;;
70487;SDS011;57976;48.174;16.370;2022-09-27T04:35:11;9.30;;;4.40;;
70487;SDS011;57976;48.174;16.370;2022-09-27T04:37:16;8.20;;;4.30;;
70487;SDS011;57976;48.174;16.370;2022-09-27T04:39:24;8.90;;;4.40;;
70487;SDS011;57976;48.174;16.370;2022-09-27T04:41:29;10.00;;;4.30;;
70487;SDS011;57976;48.174;16.370;2022-09-27T04:43:33;9.80;;;4.60;;
70487;SDS011;57976;48.174;16.370;2022-09-27T04:45:39;9.10;;;4.50;;
70487;SDS011;57976;48.174;16.370;2022-09-27T04:47:45;8.80;;;4.40;;
70487;SDS011;57976;48.174;16.370;2022-09-27T04:49:51;10.20;;;4.60;;
70487;SDS011;57976;48.174;16.370;2022-09-27T04:51:56;10.00;;;4.60;;
70487;SDS011;57976;48.174;16.370;2022-09-27T04:54:01;9.30;;;4.30;;
70487;SDS011;57976;48.174;16.370;2022-09-27T04:56:08;8.40;;;4.00;;
70487;SDS011;57976;48.174;16.370;2022-09-27T04:58:16;10.60;;;4.30;;
70487;SDS011;57976;48.174;16.370;2022-09-27T05:00:21;7.40;;;3.90;;
70487;SDS011;57976;48.174;16.370;2022-09-27T05:02:30;8.90;;;4.10;;
70487;SDS011;57976;48.174;16.370;2022-09-27T05:05:01;8.50;;;4.40;;
70487;SDS011;57976;48.174;16.370;2022-09-27T05:07:10;10.40;;;4.00;;
70487;SDS011;57976;48.174;16.370;2022-09-27T05:09:18;10.80;;;3.90;;
70487;SDS011;57976;48.174;16.370;2022-09-27T05:11:25;10.60;;;4.00;;
70487;SDS011;57976;48.174;16.370;2022-09-27T05:13:49;10.00;;;4.20;;
70487;SDS011;57976;48.174;16.370;2022-09-27T05:15:54;10.30;;;4.20;;
70487;SDS011;57976;48.174;16.370;2022-09-27T05:18:35;11.40;;;3.90;;
70487;SDS011;57976;48.174;16.370;2022-09-27T05:20:58;13.00;;;6.60;;
70487;SDS011;57976;48.174;16.370;2022-09-27T05:23:09;9.90;;;4.60;;
70487;SDS011;57976;48.174;16.370;2022-09-27T05:25:14;11.10;;;4.90;;
70487;SDS011;57976;48.174;16.370;2022-09-27T05:27:19;10.50;;;5.20;;
70487;SDS011;57976;48.174;16.370;2022-09-27T05:29:24;8.00;;;4.20;;
70487;SDS011;57976;48.174;16.370;2022-09-27T05:31:45;8.90;;;4.60;;
70487;SDS011;57976;48.174;16.370;2022-09-27T05:33:49;12.60;;;6.50;;
70487;SDS011;57976;48.174;16.370;2022-09-27T05:36:12;28.40;;;15.40;;
70487;SDS011;57976;48.174;16.370;2022-09-27T05:38:16;24.10;;;14.00;;
70487;SDS011;57976;48.174;16.370;2022-09-27T05:40:24;15.40;;;7.20;;
70487;SDS011;57976;48.174;16.370;2022-09-27T05:42:45;23.40;;;13.00;;
70487;SDS011;57976;48.174;16.370;2022-09-27T05:44:50;20.90;;;12.00;;
70487;SDS011;57976;48.174;16.370;2022-09-27T05:46:55;11.00;;;5.10;;
70487;SDS011;57976;48.174;16.370;2022-09-27T05:49:02;19.00;;;9.50;;
70487;SDS011;57976;48.174;16.370;2022-09-27T05:51:06;9.00;;;4.70;;
70487;SDS011;57976;48.174;16.370;2022-09-27T05:53:13;11.40;;;4.60;;
70487;SDS011;57976;48.174;16.370;2022-09-27T05:55:18;9.80;;;4.80;;
70487;SDS011;57976;48.174;16.370;2022-09-27T05:57:23;11.50;;;4.80;;
70487;SDS011;57976;48.174;16.370;2022-09-27T05:59:34;11.10;;;4.50;;
70487;SDS011;57976;48.174;16.370;2022-09-27T06:01:57;10.90;;;4.40;;
70487;SDS011;57976;48.174;16.370;2022-09-27T06:04:21;9.50;;;4.10;;
70487;SDS011;57976;48.174;16.370;2022-09-27T06:06:31;17.20;;;4.60;;
70487;SDS011;57976;48.174;16.370;2022-09-27T06:08:38;10.40;;;4.60;;
70487;SDS011;57976;48.174;16.370;2022-09-27T06:10:47;10.00;;;4.20;;
70487;SDS011;57976;48.174;16.370;2022-09-27T06:12:52;10.10;;;4.40;;
70487;SDS011;57976;48.174;16.370;2022-09-27T06:15:08;9.70;;;4.80;;
70487;SDS011;57976;48.174;16.370;2022-09-27T06:17:18;9.40;;;4.90;;
70487;SDS011;57976;48.174;16.370;2022-09-27T06:19:23;9.40;;;4.70;;
70487;SDS011;57976;48.174;16.370;2022-09-27T06:21:29;11.00;;;5.20;;
70487;SDS011;57976;48.174;16.370;2022-09-27T06:23:34;10.90;;;5.10;;
70487;SDS011;57976;48.174;16.370;2022-09-27T06:25:48;12.00;;;4.90;;
70487;SDS011;57976;48.174;16.370;2022-09-27T06:27:55;11.10;;;4.60;;
70487;SDS011;57976;48.174;16.370;2022-09-27T06:30:04;13.50;;;5.10;;
70487;SDS011;57976;48.174;16.370;2022-09-27T06:32:38;10.90;;;5.10;;
70487;SDS011;57976;48.174;16.370;2022-09-27T06:35:07;11.30;;;5.00;;
70487;SDS011;57976;48.174;16.370;2022-09-27T06:37:11;9.80;;;4.80;;
70487;SDS011;57976;48.174;16.370;2022-09-27T06:39:16;10.10;;;4.90;;
70487;SDS011;57976;48.174;16.370;2022-09-27T06:41:40;9.80;;;5.00;;
70487;SDS011;57976;48.174;16.370;2022-09-27T06:44:04;7.80;;;4.60;;
70487;SDS011;57976;48.174;16.370;2022-09-27T06:46:09;9.10;;;4.20;;
70487;SDS011;57976;48.174;16.370;2022-09-27T06:48:23;8.60;;;4.70;;
70487;SDS011;57976;48.174;16.370;2022-09-27T06:50:46;7.90;;;4.40;;
70487;SDS011;57976;48.174;16.370;2022-09-27T06:52:51;9.40;;;5.10;;
70487;SDS011;57976;48.174;16.370;2022-09-27T06:54:56;8.10;;;4.50;;
70487;SDS011;57976;48.174;16.370;2022-09-27T06:57:01;9.50;;;5.00;;
70487;SDS011;57976;48.174;16.370;2022-09-27T06:59:05;8.70;;;5.10;;
70487;SDS011;57976;48.174;16.370;2022-09-27T07:01:16;8.90;;;4.90;;
70487;SDS011;57976;48.174;16.370;2022-09-27T07:04:00;8.40;;;4.70;;
70487;SDS011;57976;48.174;16.370;2022-09-27T07:06:25;8.80;;;4.90;;
70487;SDS011;57976;48.174;16.370;2022-09-27T07:08:37;8.10;;;4.20;;
70487;SDS011;57976;48.174;16.370;2022-09-27T07:10:42;8.90;;;4.80;;
70487;SDS011;57976;48.174;16.370;2022-09-27T07:12:47;9.20;;;5.00;;
70487;SDS011;57976;48.174;16.370;2022-09-27T07:14:52;8.50;;;5.00;;
70487;SDS011;57976;48.174;16.370;2022-09-27T07:16:57;10.60;;;4.90;;
70487;SDS011;57976;48.174;16.370;2022-09-27T07:19:06;8.70;;;4.80;;
70487;SDS011;57976;48.174;16.370;2022-09-27T07:21:11;7.80;;;4.30;;
70487;SDS011;57976;48.174;16.370;2022-09-27T07:23:16;8.20;;;4.70;;
70487;SDS011;57976;48.174;16.370;2022-09-27T07:25:21;9.30;;;5.00;;
70487;SDS011;57976;48.174;16.370;2022-09-27T07:27:27;9.90;;;5.10;;
70487;SDS011;57976;48.174;16.370;2022-09-27T07:29:32;8.90;;;4.80;;
70487;SDS011;57976;48.174;16.370;2022-09-27T07:31:36;10.40;;;5.30;;
70487;SDS011;57976;48.174;16.370;2022-09-27T07:33:41;9.80;;;5.20;;
70487;SDS011;57976;48.174;16.370;2022-09-27T07:35:46;8.80;;;4.90;;
70487;SDS011;57976;48.174;16.370;2022-09-27T07:37:52;9.90;;;5.70;;
70487;SDS011;57976;48.174;16.370;2022-09-27T07:39:57;10.10;;;5.60;;
70487;SDS011;57976;48.174;16.370;2022-09-27T07:42:02;10.50;;;5.60;;
70487;SDS011;57976;48.174;16.370;2022-09-27T07:44:07;8.40;;;5.00;;
70487;SDS011;57976;48.174;16.370;2022-09-27T07:46:22;9.40;;;5.40;;
70487;SDS011;57976;48.174;16.370;2022-09-27T07:48:32;9.20;;;5.10;;
70487;SDS011;57976;48.174;16.370;2022-09-27T07:50:45;10.00;;;5.40;;
70487;SDS011;57976;48.174;16.370;2022-09-27T07:53:12;9.60;;;5.10;;
70487;SDS011;57976;48.174;16.370;2022-09-27T07:55:25;10.10;;;5.30;;
70487;SDS011;57976;48.174;16.370;2022-09-27T07:57:40;10.30;;;5.40;;
70487;SDS011;57976;48.174;16.370;2022-09-27T07:59:46;10.70;;;5.70;;
70487;SDS011;57976;48.174;16.370;2022-09-27T08:01:53;9.90;;;5.60;;
70487;SDS011;57976;48.174;16.370;2022-09-27T08:03:58;11.60;;;6.30;;
70487;SDS011;57976;48.174;16.370;2022-09-27T08:06:04;12.30;;;6.80;;
70487;SDS011;57976;48.174;16.370;2022-09-27T08:08:08;11.00;;;6.90;;
70487;SDS011;57976;48.174;16.370;2022-09-27T08:10:13;13.70;;;6.50;;
70487;SDS011;57976;48.174;16.370;2022-09-27T08:12:18;12.80;;;6.10;;
70487;SDS011;57976;48.174;16.370;2022-09-27T08:14:24;12.90;;;6.20;;
70487;SDS011;57976;48.174;16.370;2022-09-27T08:16:29;9.80;;;5.70;;
70487;SDS011;57976;48.174;16.370;2022-09-27T08:18:51;10.70;;;5.50;;
70487;SDS011;57976;48.174;16.370;2022-09-27T08:21:15;10.20;;;5.10;;
70487;SDS011;57976;48.174;16.370;2022-09-27T08:23:33;10.20;;;5.40;;
70487;SDS011;57976;48.174;16.370;2022-09-27T08:25:57;10.60;;;5.30;;
70487;SDS011;57976;48.174;16.370;2022-09-27T08:28:22;9.80;;;5.00;;
70487;SDS011;57976;48.174;16.370;2022-09-27T08:30:33;11.80;;;4.70;;
70487;SDS011;57976;48.174;16.370;2022-09-27T08:32:37;8.90;;;4.60;;
70487;SDS011;57976;48.174;16.370;2022-09-27T08:34:43;8.90;;;4.10;;
70487;SDS011;57976;48.174;16.370;2022-09-27T08:36:47;9.10;;;4.50;;
70487;SDS011;57976;48.174;16.370;2022-09-27T08:38:52;8.90;;;3.90;;
70487;SDS011;57976;48.174;16.370;2022-09-27T08:40:58;8.30;;;3.90;;
70487;SDS011;57976;48.174;16.370;2022-09-27T08:43:12;7.20;;;3.60;;
70487;SDS011;57976;48.174;16.370;2022-09-27T08:45:26;7.90;;;3.80;;
70487;SDS011;57976;48.174;16.370;2022-09-27T08:47:35;7.20;;;3.30;;
70487;SDS011;57976;48.174;16.370;2022-09-27T08:49:46;9.50;;;3.70;;
70487;SDS011;57976;48.174;16.370;2022-09-27T08:51:57;6.10;;;3.10;;
70487;SDS011;57976;48.174;16.370;2022-09-27T08:54:04;7.30;;;2.90;;
70487;SDS011;57976;48.174;16.370;2022-09-27T08:56:12;7.70;;;3.00;;
70487;SDS011;57976;48.174;16.370;2022-09-27T08:58:24;6.70;;;3.10;;
70487;SDS011;57976;48.174;16.370;2022-09-27T09:00:32;7.00;;;3.10;;
70487;SDS011;57976;48.174;16.370;2022-09-27T09:02:37;7.10;;;3.00;;
70487;SDS011;57976;48.174;16.370;2022-09-27T09:04:45;6.00;;;2.90;;
70487;SDS011;57976;48.174;16.370;2022-09-27T09:06:55;6.90;;;2.90;;
70487;SDS011;57976;48.174;16.370;2022-09-27T09:09:10;7.00;;;3.10;;
70487;SDS011;57976;48.174;16.370;2022-09-27T09:11:55;6.40;;;2.70;;
70487;SDS011;57976;48.174;16.370;2022-09-27T09:14:19;5.80;;;2.30;;
70487;SDS011;57976;48.174;16.370;2022-09-27T09:16:34;5.60;;;2.60;;
70487;SDS011;57976;48.174;16.370;2022-09-27T09:18:51;5.60;;;2.60;;
70487;SDS011;57976;48.174;16.370;2022-09-27T09:21:34;6.70;;;2.40;;
70487;SDS011;57976;48.174;16.370;2022-09-27T09:26:20;6.30;;;2.90;;
70487;SDS011;57976;48.174;16.370;2022-09-27T09:28:34;5.60;;;2.60;;
70487;SDS011;57976;48.174;16.370;2022-09-27T09:30:51;5.30;;;2.10;;
70487;SDS011;57976;48.174;16.370;2022-09-27T09:33:12;6.00;;;2.90;;
70487;SDS011;57976;48.174;16.370;2022-09-27T09:35:22;5.50;;;2.50;;
70487;SDS011;57976;48.174;16.370;2022-09-27T09:37:33;6.30;;;2.80;;
70487;SDS011;57976;48.174;16.370;2022-09-27T09:39:41;7.10;;;3.00;;
70487;SDS011;57976;48.174;16.370;2022-09-27T09:41:59;7.00;;;2.50;;
70487;SDS011;57976;48.174;16.370;2022-09-27T09:44:16;7.30;;;2.80;;
70487;SDS011;57976;48.174;16.370;2022-09-27T09:46:25;5.90;;;2.30;;
70487;SDS011;57976;48.174;16.370;2022-09-27T09:48:38;5.40;;;2.30;;
70487;SDS011;57976;48.174;16.370;2022-09-27T09:50:48;7.30;;;2.60;;
70487;SDS011;57976;48.174;16.370;2022-09-27T09:52:56;6.50;;;2.60;;
70487;SDS011;57976;48.174;16.370;2022-09-27T09:55:11;6.00;;;2.60;;
70487;SDS011;57976;48.174;16.370;2022-09-27T09:57:21;8.00;;;3.20;;
70487;SDS011;57976;48.174;16.370;2022-09-27T09:59:32;7.30;;;3.00;;
70487;SDS011;57976;48.174;16.370;2022-09-27T10:01:42;7.40;;;3.40;;
70487;SDS011;57976;48.174;16.370;2022-09-27T10:03:50;7.90;;;3.50;;
70487;SDS011;57976;48.174;16.370;2022-09-27T10:05:55;6.90;;;3.40;;
70487;SDS011;57976;48.174;16.370;2022-09-27T10:08:01;7.10;;;3.10;;
70487;SDS011;57976;48.174;16.370;2022-09-27T10:10:11;6.60;;;3.10;;
70487;SDS011;57976;48.174;16.370;2022-09-27T10:12:56;6.80;;;3.00;;
70487;SDS011;57976;48.174;16.370;2022-09-27T10:15:06;6.60;;;3.00;;
70487;SDS011;57976;48.174;16.370;2022-09-27T10:17:17;7.40;;;2.80;;
70487;SDS011;57976;48.174;16.370;2022-09-27T10:19:26;6.70;;;3.10;;
70487;SDS011;57976;48.174;16.370;2022-09-27T10:21:33;6.50;;;3.10;;
70487;SDS011;57976;48.174;16.370;2022-09-27T10:26:25;6.90;;;3.40;;
70487;SDS011;57976;48.174;16.370;2022-09-27T10:28:32;5.70;;;2.40;;
70487;SDS011;57976;48.174;16.370;2022-09-27T10:30:38;7.00;;;2.60;;
70487;SDS011;57976;48.174;16.370;2022-09-27T10:32:45;6.50;;;2.70;;
70487;SDS011;57976;48.174;16.370;2022-09-27T10:35:30;5.40;;;2.50;;
70487;SDS011;57976;48.174;16.370;2022-09-27T10:37:38;5.50;;;2.10;;
70487;SDS011;57976;48.174;16.370;2022-09-27T10:39:45;5.40;;;2.00;;
70487;SDS011;57976;48.174;16.370;2022-09-27T10:41:52;7.30;;;2.60;;
70487;SDS011;57976;48.174;16.370;2022-09-27T10:46:41;5.00;;;1.90;;
70487;SDS011;57976;48.174;16.370;2022-09-27T10:49:09;5.30;;;1.90;;
70487;SDS011;57976;48.174;16.370;2022-09-27T10:51:25;4.40;;;1.70;;
70487;SDS011;57976;48.174;16.370;2022-09-27T10:53:34;4.00;;;1.50;;
70487;SDS011;57976;48.174;16.370;2022-09-27T10:55:47;5.00;;;1.30;;
70487;SDS011;57976;48.174;16.370;2022-09-27T10:57:54;5.10;;;1.70;;
70487;SDS011;57976;48.174;16.370;2022-09-27T10:59:59;4.70;;;1.40;;
70487;SDS011;57976;48.174;16.370;2022-09-27T11:02:16;5.00;;;1.30;;
70487;SDS011;57976;48.174;16.370;2022-09-27T11:04:36;6.60;;;2.40;;
70487;SDS011;57976;48.174;16.370;2022-09-27T11:06:41;4.20;;;1.20;;
70487;SDS011;57976;48.174;16.370;2022-09-27T11:08:45;4.50;;;1.40;;
70487;SDS011;57976;48.174;16.370;2022-09-27T11:11:01;3.40;;;1.10;;
70487;SDS011;57976;48.174;16.370;2022-09-27T11:13:14;4.60;;;1.30;;
70487;SDS011;57976;48.174;16.370;2022-09-27T11:15:22;4.30;;;1.30;;
70487;SDS011;57976;48.174;16.370;2022-09-27T11:17:31;5.30;;;1.70;;
70487;SDS011;57976;48.174;16.370;2022-09-27T11:22:26;3.80;;;1.00;;
70487;SDS011;57976;48.174;16.370;2022-09-27T11:24:47;3.80;;;1.10;;
70487;SDS011;57976;48.174;16.370;2022-09-27T11:27:08;4.50;;;1.30;;
70487;SDS011;57976;48.174;16.370;2022-09-27T11:29:27;4.30;;;1.30;;
70487;SDS011;57976;48.174;16.370;2022-09-27T11:32:14;3.80;;;1.10;;
70487;SDS011;57976;48.174;16.370;2022-09-27T11:34:31;2.80;;;0.80;;
70487;SDS011;57976;48.174;16.370;2022-09-27T11:36:52;3.20;;;0.80;;
70487;SDS011;57976;48.174;16.370;2022-09-27T11:39:08;4.20;;;1.00;;
70487;SDS011;57976;48.174;16.370;2022-09-27T11:41:25;5.40;;;0.80;;
70487;SDS011;57976;48.174;16.370;2022-09-27T11:43:48;2.40;;;0.70;;
70487;SDS011;57976;48.174;16.370;2022-09-27T11:46:12;3.40;;;0.90;;
70487;SDS011;57976;48.174;16.370;2022-09-27T11:48:43;2.90;;;0.70;;
70487;SDS011;57976;48.174;16.370;2022-09-27T11:51:13;3.00;;;0.90;;
70487;SDS011;57976;48.174;16.370;2022-09-27T11:53:34;2.70;;;0.90;;
70487;SDS011;57976;48.174;16.370;2022-09-27T11:55:52;4.00;;;1.20;;
70487;SDS011;57976;48.174;16.370;2022-09-27T11:58:09;4.00;;;1.20;;
70487;SDS011;57976;48.174;16.370;2022-09-27T12:00:22;4.40;;;1.10;;
70487;SDS011;57976;48.174;16.370;2022-09-27T12:02:44;4.40;;;1.30;;
70487;SDS011;57976;48.174;16.370;2022-09-27T12:05:18;4.90;;;1.60;;
70487;SDS011;57976;48.174;16.370;2022-09-27T12:07:38;4.10;;;1.30;;
70487;SDS011;57976;48.174;16.370;2022-09-27T12:09:49;3.20;;;1.00;;
70487;SDS011;57976;48.174;16.370;2022-09-27T12:12:02;4.40;;;1.20;;
70487;SDS011;57976;48.174;16.370;2022-09-27T12:14:15;4.60;;;1.40;;
70487;SDS011;57976;48.174;16.370;2022-09-27T12:16:29;4.40;;;1.20;;
70487;SDS011;57976;48.174;16.370;2022-09-27T12:18:36;6.20;;;1.70;;
70487;SDS011;57976;48.174;16.370;2022-09-27T12:20:56;4.10;;;1.20;;
70487;SDS011;57976;48.174;16.370;2022-09-27T12:23:06;7.40;;;2.10;;
70487;SDS011;57976;48.174;16.370;2022-09-27T12:25:36;7.10;;;2.20;;
70487;SDS011;57976;48.174;16.370;2022-09-27T12:27:52;5.90;;;2.40;;
70487;SDS011;57976;48.174;16.370;2022-09-27T12:30:00;4.10;;;1.30;;
70487;SDS011;57976;48.174;16.370;2022-09-27T12:32:08;5.30;;;1.20;;
70487;SDS011;57976;48.174;16.370;2022-09-27T12:34:17;3.50;;;1.10;;
70487;SDS011;57976;48.174;16.370;2022-09-27T12:36:26;4.60;;;1.40;;
70487;SDS011;57976;48.174;16.370;2022-09-27T12:38:40;3.90;;;1.10;;
70487;SDS011;57976;48.174;16.370;2022-09-27T12:40:50;3.40;;;1.10;;
70487;SDS011;57976;48.174;16.370;2022-09-27T12:43:06;4.50;;;1.10;;
70487;SDS011;57976;48.174;16.370;2022-09-27T12:45:33;5.20;;;1.20;;
70487;SDS011;57976;48.174;16.370;2022-09-27T12:47:54;4.50;;;1.10;;
70487;SDS011;57976;48.174;16.370;2022-09-27T12:50:10;4.30;;;1.10;;
70487;SDS011;57976;48.174;16.370;2022-09-27T12:52:24;4.20;;;1.10;;
70487;SDS011;57976;48.174;16.370;2022-09-27T12:54:47;3.20;;;0.90;;
70487;SDS011;57976;48.174;16.370;2022-09-27T12:57:12;3.70;;;1.00;;
70487;SDS011;57976;48.174;16.370;2022-09-27T12:59:41;4.10;;;0.90;;
70487;SDS011;57976;48.174;16.370;2022-09-27T13:04:37;3.50;;;1.10;;
70487;SDS011;57976;48.174;16.370;2022-09-27T13:07:04;3.70;;;1.10;;
70487;SDS011;57976;48.174;16.370;2022-09-27T13:11:54;3.30;;;1.00;;
70487;SDS011;57976;48.174;16.370;2022-09-27T13:14:10;3.70;;;1.00;;
70487;SDS011;57976;48.174;16.370;2022-09-27T13:16:22;3.90;;;1.20;;
70487;SDS011;57976;48.174;16.370;2022-09-27T13:20:56;4.20;;;1.10;;
70487;SDS011;57976;48.174;16.370;2022-09-27T13:26:19;4.00;;;1.00;;
70487;SDS011;57976;48.174;16.370;2022-09-27T13:28:58;5.70;;;0.90;;
70487;SDS011;57976;48.174;16.370;2022-09-27T13:31:10;3.50;;;1.00;;
70487;SDS011;57976;48.174;16.370;2022-09-27T13:36:06;4.10;;;1.10;;